Terminal Aerodrome Forecast
Issued by NWS

Home | Current Version | Previous Version | Graphics & Text | Print | Product List | Glossary On
Versions: 1 2 3 4 5 6 7 8 9 10 11 12 13 14
000
FTUS43 KIWX 201610 AAA
TAFSBN
TAF AMD
KSBN 201610Z 2016/2112 20009KT P6SM SCT020 BKN060
      TEMPO 2016/2018 BKN020
     FM201800 24010KT P6SM BKN025 OVC050
      TEMPO 2018/2021 2SM TSRAGS BR BKN015CB
     FM202300 36006KT P6SM OVC015=

USA.gov is the U.S. government's official web portal to all federal, state and local government web resources and services.